sensor_id;sensor_type;location;lat;lon;timestamp;temperature;humidity
75190;HTU21D;69198;44.694;37.790;2023-12-04T00:00:05;14.48;88.38
75190;HTU21D;69198;44.694;37.790;2023-12-04T00:01:13;14.47;88.38
75190;HTU21D;69198;44.694;37.790;2023-12-04T00:02:14;14.47;88.33
75190;HTU21D;69198;44.694;37.790;2023-12-04T00:03:16;14.47;88.28
75190;HTU21D;69198;44.694;37.790;2023-12-04T00:04:16;14.49;88.27
75190;HTU21D;69198;44.694;37.790;2023-12-04T00:05:18;14.49;88.25
75190;HTU21D;69198;44.694;37.790;2023-12-04T00:06:19;14.48;88.24
75190;HTU21D;69198;44.694;37.790;2023-12-04T00:07:20;14.48;88.22
75190;HTU21D;69198;44.694;37.790;2023-12-04T00:08:21;14.49;88.19
75190;HTU21D;69198;44.694;37.790;2023-12-04T00:09:22;14.50;88.19
75190;HTU21D;69198;44.694;37.790;2023-12-04T00:10:25;14.51;88.18
75190;HTU21D;69198;44.694;37.790;2023-12-04T00:11:26;14.51;88.15
75190;HTU21D;69198;44.694;37.790;2023-12-04T00:12:27;14.51;88.12
75190;HTU21D;69198;44.694;37.790;2023-12-04T00:13:28;14.52;88.12
75190;HTU21D;69198;44.694;37.790;2023-12-04T00:14:32;14.50;88.12
75190;HTU21D;69198;44.694;37.790;2023-12-04T00:15:33;14.50;88.10
75190;HTU21D;69198;44.694;37.790;2023-12-04T00:16:34;14.50;88.09
75190;HTU21D;69198;44.694;37.790;2023-12-04T00:17:38;14.50;88.09
75190;HTU21D;69198;44.694;37.790;2023-12-04T00:18:40;14.50;88.06
75190;HTU21D;69198;44.694;37.790;2023-12-04T00:19:41;14.50;88.04
75190;HTU21D;69198;44.694;37.790;2023-12-04T00:20:42;14.49;88.03
75190;HTU21D;69198;44.694;37.790;2023-12-04T00:21:44;14.49;88.00
75190;HTU21D;69198;44.694;37.790;2023-12-04T00:22:45;14.49;88.02
75190;HTU21D;69198;44.694;37.790;2023-12-04T00:23:46;14.47;88.00
75190;HTU21D;69198;44.694;37.790;2023-12-04T00:24:47;14.48;88.01
75190;HTU21D;69198;44.694;37.790;2023-12-04T00:25:48;14.45;88.02
75190;HTU21D;69198;44.694;37.790;2023-12-04T00:26:50;14.47;88.03
75190;HTU21D;69198;44.694;37.790;2023-12-04T00:27:51;14.44;88.02
75190;HTU21D;69198;44.694;37.790;2023-12-04T00:28:52;14.45;88.02
75190;HTU21D;69198;44.694;37.790;2023-12-04T00:29:53;14.47;87.99
75190;HTU21D;69198;44.694;37.790;2023-12-04T00:30:54;14.45;87.99
75190;HTU21D;69198;44.694;37.790;2023-12-04T00:31:55;14.47;87.99
75190;HTU21D;69198;44.694;37.790;2023-12-04T00:32:57;14.47;87.99
75190;HTU21D;69198;44.694;37.790;2023-12-04T00:33:58;14.47;87.98
75190;HTU21D;69198;44.694;37.790;2023-12-04T00:34:59;14.47;87.99
75190;HTU21D;69198;44.694;37.790;2023-12-04T00:36:00;14.47;87.96
75190;HTU21D;69198;44.694;37.790;2023-12-04T00:37:01;14.45;87.96
75190;HTU21D;69198;44.694;37.790;2023-12-04T00:38:02;14.47;87.95
75190;HTU21D;69198;44.694;37.790;2023-12-04T00:39:03;14.44;87.97
75190;HTU21D;69198;44.694;37.790;2023-12-04T00:40:06;14.45;87.99
75190;HTU21D;69198;44.694;37.790;2023-12-04T00:41:08;14.44;88.02
75190;HTU21D;69198;44.694;37.790;2023-12-04T00:42:09;14.42;88.02
75190;HTU21D;69198;44.694;37.790;2023-12-04T00:43:10;14.43;88.06
75190;HTU21D;69198;44.694;37.790;2023-12-04T00:44:11;14.42;88.06
75190;HTU21D;69198;44.694;37.790;2023-12-04T00:45:12;14.41;88.08
75190;HTU21D;69198;44.694;37.790;2023-12-04T00:46:13;14.42;88.09
75190;HTU21D;69198;44.694;37.790;2023-12-04T00:47:14;14.41;88.11
75190;HTU21D;69198;44.694;37.790;2023-12-04T00:48:15;14.40;88.11
75190;HTU21D;69198;44.694;37.790;2023-12-04T00:49:16;14.39;88.10
75190;HTU21D;69198;44.694;37.790;2023-12-04T00:50:17;14.38;88.12
75190;HTU21D;69198;44.694;37.790;2023-12-04T00:51:19;14.38;88.14
75190;HTU21D;69198;44.694;37.790;2023-12-04T00:52:20;14.35;88.18
75190;HTU21D;69198;44.694;37.790;2023-12-04T00:53:21;14.34;88.18
75190;HTU21D;69198;44.694;37.790;2023-12-04T00:54:22;14.32;88.18
75190;HTU21D;69198;44.694;37.790;2023-12-04T00:55:23;14.28;88.22
75190;HTU21D;69198;44.694;37.790;2023-12-04T00:56:24;14.25;88.26
75190;HTU21D;69198;44.694;37.790;2023-12-04T00:57:25;14.23;88.31
75190;HTU21D;69198;44.694;37.790;2023-12-04T00:58:26;14.20;88.35
75190;HTU21D;69198;44.694;37.790;2023-12-04T00:59:27;14.18;88.41
75190;HTU21D;69198;44.694;37.790;2023-12-04T01:00:28;14.14;88.47
75190;HTU21D;69198;44.694;37.790;2023-12-04T01:01:29;14.12;88.52
75190;HTU21D;69198;44.694;37.790;2023-12-04T01:02:30;14.11;88.54
75190;HTU21D;69198;44.694;37.790;2023-12-04T01:03:31;14.08;88.61
75190;HTU21D;69198;44.694;37.790;2023-12-04T01:04:33;14.06;88.67
75190;HTU21D;69198;44.694;37.790;2023-12-04T01:05:34;14.04;88.72
75190;HTU21D;69198;44.694;37.790;2023-12-04T01:06:35;14.06;88.75
75190;HTU21D;69198;44.694;37.790;2023-12-04T01:07:36;14.04;88.80
75190;HTU21D;69198;44.694;37.790;2023-12-04T01:08:37;14.03;88.83
75190;HTU21D;69198;44.694;37.790;2023-12-04T01:09:38;14.03;88.82
75190;HTU21D;69198;44.694;37.790;2023-12-04T01:10:40;14.04;88.82
75190;HTU21D;69198;44.694;37.790;2023-12-04T01:11:41;14.04;88.82
75190;HTU21D;69198;44.694;37.790;2023-12-04T01:12:42;14.04;88.83
75190;HTU21D;69198;44.694;37.790;2023-12-04T01:13:43;14.05;88.83
75190;HTU21D;69198;44.694;37.790;2023-12-04T01:14:44;14.05;88.83
75190;HTU21D;69198;44.694;37.790;2023-12-04T01:15:45;14.06;88.84
75190;HTU21D;69198;44.694;37.790;2023-12-04T01:16:47;14.06;88.89
75190;HTU21D;69198;44.694;37.790;2023-12-04T01:17:48;14.06;88.92
75190;HTU21D;69198;44.694;37.790;2023-12-04T01:18:49;14.07;88.96
75190;HTU21D;69198;44.694;37.790;2023-12-04T01:19:50;14.09;88.97
75190;HTU21D;69198;44.694;37.790;2023-12-04T01:20:51;14.10;88.98
75190;HTU21D;69198;44.694;37.790;2023-12-04T01:21:52;14.12;88.96
75190;HTU21D;69198;44.694;37.790;2023-12-04T01:22:54;14.12;88.93
75190;HTU21D;69198;44.694;37.790;2023-12-04T01:23:55;14.13;88.91
75190;HTU21D;69198;44.694;37.790;2023-12-04T01:24:56;14.12;88.94
75190;HTU21D;69198;44.694;37.790;2023-12-04T01:25:57;14.12;88.94
75190;HTU21D;69198;44.694;37.790;2023-12-04T01:26:58;14.13;88.94
75190;HTU21D;69198;44.694;37.790;2023-12-04T01:27:59;14.13;88.92
75190;HTU21D;69198;44.694;37.790;2023-12-04T01:29:01;14.13;88.92
75190;HTU21D;69198;44.694;37.790;2023-12-04T01:30:02;14.13;88.93
75190;HTU21D;69198;44.694;37.790;2023-12-04T01:31:04;14.11;88.95
75190;HTU21D;69198;44.694;37.790;2023-12-04T01:32:05;14.12;88.99
75190;HTU21D;69198;44.694;37.790;2023-12-04T01:33:07;14.12;88.99
75190;HTU21D;69198;44.694;37.790;2023-12-04T01:34:08;14.12;88.99
75190;HTU21D;69198;44.694;37.790;2023-12-04T01:35:10;14.13;89.05
75190;HTU21D;69198;44.694;37.790;2023-12-04T01:36:11;14.13;89.05
75190;HTU21D;69198;44.694;37.790;2023-12-04T01:37:12;14.15;89.06
75190;HTU21D;69198;44.694;37.790;2023-12-04T01:38:13;14.15;89.05
75190;HTU21D;69198;44.694;37.790;2023-12-04T01:39:14;14.15;89.11
75190;HTU21D;69198;44.694;37.790;2023-12-04T01:40:15;14.18;89.11
75190;HTU21D;69198;44.694;37.790;2023-12-04T01:41:16;14.19;89.13
75190;HTU21D;69198;44.694;37.790;2023-12-04T01:42:17;14.19;89.14
75190;HTU21D;69198;44.694;37.790;2023-12-04T01:43:18;14.17;89.11
75190;HTU21D;69198;44.694;37.790;2023-12-04T01:44:19;14.15;89.12
75190;HTU21D;69198;44.694;37.790;2023-12-04T01:45:20;14.15;89.14
75190;HTU21D;69198;44.694;37.790;2023-12-04T01:46:21;14.15;89.16
75190;HTU21D;69198;44.694;37.790;2023-12-04T01:47:22;14.12;89.17
75190;HTU21D;69198;44.694;37.790;2023-12-04T01:48:24;14.12;89.21
75190;HTU21D;69198;44.694;37.790;2023-12-04T01:49:26;14.11;89.28
75190;HTU21D;69198;44.694;37.790;2023-12-04T01:50:27;14.12;89.33
75190;HTU21D;69198;44.694;37.790;2023-12-04T01:51:29;14.12;89.28
75190;HTU21D;69198;44.694;37.790;2023-12-04T01:52:31;14.12;89.26
75190;HTU21D;69198;44.694;37.790;2023-12-04T01:53:33;14.12;89.24
75190;HTU21D;69198;44.694;37.790;2023-12-04T01:54:35;14.11;89.27
75190;HTU21D;69198;44.694;37.790;2023-12-04T01:55:37;14.11;89.29
75190;HTU21D;69198;44.694;37.790;2023-12-04T01:56:39;14.11;89.31
75190;HTU21D;69198;44.694;37.790;2023-12-04T01:57:40;14.13;89.27
75190;HTU21D;69198;44.694;37.790;2023-12-04T01:58:42;14.14;89.30
75190;HTU21D;69198;44.694;37.790;2023-12-04T01:59:43;14.17;89.26
75190;HTU21D;69198;44.694;37.790;2023-12-04T02:00:45;14.18;89.21
75190;HTU21D;69198;44.694;37.790;2023-12-04T02:01:47;14.19;89.18
75190;HTU21D;69198;44.694;37.790;2023-12-04T02:02:48;14.21;89.12
75190;HTU21D;69198;44.694;37.790;2023-12-04T02:03:50;14.21;89.06
75190;HTU21D;69198;44.694;37.790;2023-12-04T02:04:57;14.22;89.02
75190;HTU21D;69198;44.694;37.790;2023-12-04T02:06:01;14.23;89.02
75190;HTU21D;69198;44.694;37.790;2023-12-04T02:07:04;14.20;89.02
75190;HTU21D;69198;44.694;37.790;2023-12-04T02:08:05;14.21;89.02
75190;HTU21D;69198;44.694;37.790;2023-12-04T02:09:06;14.20;89.00
75190;HTU21D;69198;44.694;37.790;2023-12-04T02:10:10;14.22;89.01
75190;HTU21D;69198;44.694;37.790;2023-12-04T02:11:11;14.23;88.99
75190;HTU21D;69198;44.694;37.790;2023-12-04T02:12:12;14.24;88.97
75190;HTU21D;69198;44.694;37.790;2023-12-04T02:13:13;14.26;88.96
75190;HTU21D;69198;44.694;37.790;2023-12-04T02:14:15;14.28;88.92
75190;HTU21D;69198;44.694;37.790;2023-12-04T02:15:16;14.29;88.92
75190;HTU21D;69198;44.694;37.790;2023-12-04T02:16:18;14.32;88.91
75190;HTU21D;69198;44.694;37.790;2023-12-04T02:17:20;14.33;88.89
75190;HTU21D;69198;44.694;37.790;2023-12-04T02:18:23;14.34;88.85
75190;HTU21D;69198;44.694;37.790;2023-12-04T02:19:24;14.35;88.83
75190;HTU21D;69198;44.694;37.790;2023-12-04T02:20:32;14.38;88.83
75190;HTU21D;69198;44.694;37.790;2023-12-04T02:21:36;14.38;88.85
75190;HTU21D;69198;44.694;37.790;2023-12-04T02:22:38;14.38;88.83
75190;HTU21D;69198;44.694;37.790;2023-12-04T02:23:38;14.38;88.85
75190;HTU21D;69198;44.694;37.790;2023-12-04T02:24:40;14.39;88.84
75190;HTU21D;69198;44.694;37.790;2023-12-04T02:25:41;14.39;88.83
75190;HTU21D;69198;44.694;37.790;2023-12-04T02:26:47;14.40;88.86
75190;HTU21D;69198;44.694;37.790;2023-12-04T02:27:53;14.37;88.92
75190;HTU21D;69198;44.694;37.790;2023-12-04T02:28:59;14.37;88.96
75190;HTU21D;69198;44.694;37.790;2023-12-04T02:30:02;14.36;88.93
75190;HTU21D;69198;44.694;37.790;2023-12-04T02:31:07;14.37;88.99
75190;HTU21D;69198;44.694;37.790;2023-12-04T02:32:11;14.36;89.05
75190;HTU21D;69198;44.694;37.790;2023-12-04T02:33:15;14.34;89.05
75190;HTU21D;69198;44.694;37.790;2023-12-04T02:34:18;14.33;89.10
75190;HTU21D;69198;44.694;37.790;2023-12-04T02:35:22;14.33;89.15
75190;HTU21D;69198;44.694;37.790;2023-12-04T02:36:24;14.32;89.21
75190;HTU21D;69198;44.694;37.790;2023-12-04T02:37:26;14.30;89.28
75190;HTU21D;69198;44.694;37.790;2023-12-04T02:38:28;14.32;89.33
75190;HTU21D;69198;44.694;37.790;2023-12-04T02:39:29;14.28;89.43
75190;HTU21D;69198;44.694;37.790;2023-12-04T02:40:30;14.29;89.47
75190;HTU21D;69198;44.694;37.790;2023-12-04T02:41:31;14.29;89.50
75190;HTU21D;69198;44.694;37.790;2023-12-04T02:42:33;14.28;89.53
75190;HTU21D;69198;44.694;37.790;2023-12-04T02:43:34;14.28;89.54
75190;HTU21D;69198;44.694;37.790;2023-12-04T02:44:35;14.26;89.58
75190;HTU21D;69198;44.694;37.790;2023-12-04T02:45:36;14.26;89.60
75190;HTU21D;69198;44.694;37.790;2023-12-04T02:46:37;14.24;89.65
75190;HTU21D;69198;44.694;37.790;2023-12-04T02:47:38;14.23;89.63
75190;HTU21D;69198;44.694;37.790;2023-12-04T02:48:39;14.24;89.67
75190;HTU21D;69198;44.694;37.790;2023-12-04T02:49:41;14.22;89.69
75190;HTU21D;69198;44.694;37.790;2023-12-04T02:50:41;14.20;89.71
75190;HTU21D;69198;44.694;37.790;2023-12-04T02:51:43;14.15;89.75
75190;HTU21D;69198;44.694;37.790;2023-12-04T02:52:44;14.12;89.79
75190;HTU21D;69198;44.694;37.790;2023-12-04T02:53:45;14.09;89.90
75190;HTU21D;69198;44.694;37.790;2023-12-04T02:54:46;14.06;89.94
75190;HTU21D;69198;44.694;37.790;2023-12-04T02:55:47;14.04;90.02
75190;HTU21D;69198;44.694;37.790;2023-12-04T02:56:48;14.03;90.10
75190;HTU21D;69198;44.694;37.790;2023-12-04T02:57:49;13.98;90.14
75190;HTU21D;69198;44.694;37.790;2023-12-04T02:58:50;13.98;90.22
75190;HTU21D;69198;44.694;37.790;2023-12-04T02:59:51;13.96;90.26
75190;HTU21D;69198;44.694;37.790;2023-12-04T03:00:52;13.94;90.32
75190;HTU21D;69198;44.694;37.790;2023-12-04T03:01:53;13.93;90.42
75190;HTU21D;69198;44.694;37.790;2023-12-04T03:02:54;13.92;90.47
75190;HTU21D;69198;44.694;37.790;2023-12-04T03:03:55;13.91;90.56
75190;HTU21D;69198;44.694;37.790;2023-12-04T03:04:56;13.92;90.62
75190;HTU21D;69198;44.694;37.790;2023-12-04T03:05:57;13.93;90.65
75190;HTU21D;69198;44.694;37.790;2023-12-04T03:06:58;13.93;90.64
75190;HTU21D;69198;44.694;37.790;2023-12-04T03:07:59;13.94;90.66
75190;HTU21D;69198;44.694;37.790;2023-12-04T03:09:00;13.95;90.67
75190;HTU21D;69198;44.694;37.790;2023-12-04T03:10:01;13.95;90.70
75190;HTU21D;69198;44.694;37.790;2023-12-04T03:11:03;13.97;90.72
75190;HTU21D;69198;44.694;37.790;2023-12-04T03:12:04;13.98;90.69
75190;HTU21D;69198;44.694;37.790;2023-12-04T03:13:05;14.00;90.68
75190;HTU21D;69198;44.694;37.790;2023-12-04T03:14:07;14.01;90.72
75190;HTU21D;69198;44.694;37.790;2023-12-04T03:15:08;14.05;90.72
75190;HTU21D;69198;44.694;37.790;2023-12-04T03:16:17;14.09;90.70
75190;HTU21D;69198;44.694;37.790;2023-12-04T03:17:18;14.11;90.69
75190;HTU21D;69198;44.694;37.790;2023-12-04T03:18:19;14.13;90.67
75190;HTU21D;69198;44.694;37.790;2023-12-04T03:19:20;14.17;90.60
75190;HTU21D;69198;44.694;37.790;2023-12-04T03:20:21;14.18;90.60
75190;HTU21D;69198;44.694;37.790;2023-12-04T03:21:22;14.19;90.57
75190;HTU21D;69198;44.694;37.790;2023-12-04T03:22:24;14.19;90.63
75190;HTU21D;69198;44.694;37.790;2023-12-04T03:23:25;14.19;90.69
75190;HTU21D;69198;44.694;37.790;2023-12-04T03:24:26;14.20;90.75
75190;HTU21D;69198;44.694;37.790;2023-12-04T03:25:26;14.21;90.80
75190;HTU21D;69198;44.694;37.790;2023-12-04T03:26:28;14.20;90.83
75190;HTU21D;69198;44.694;37.790;2023-12-04T03:27:29;14.23;90.86
75190;HTU21D;69198;44.694;37.790;2023-12-04T03:28:30;14.25;90.86
75190;HTU21D;69198;44.694;37.790;2023-12-04T03:29:31;14.26;90.83
75190;HTU21D;69198;44.694;37.790;2023-12-04T03:30:32;14.28;90.81
75190;HTU21D;69198;44.694;37.790;2023-12-04T03:31:33;14.27;90.82
75190;HTU21D;69198;44.694;37.790;2023-12-04T03:32:35;14.28;90.83
75190;HTU21D;69198;44.694;37.790;2023-12-04T03:33:36;14.26;90.84
75190;HTU21D;69198;44.694;37.790;2023-12-04T03:34:37;14.25;90.87
75190;HTU21D;69198;44.694;37.790;2023-12-04T03:35:38;14.22;90.91
75190;HTU21D;69198;44.694;37.790;2023-12-04T03:36:39;14.23;90.92
75190;HTU21D;69198;44.694;37.790;2023-12-04T03:37:40;14.19;90.94
75190;HTU21D;69198;44.694;37.790;2023-12-04T03:38:41;14.17;90.95
75190;HTU21D;69198;44.694;37.790;2023-12-04T03:39:42;14.13;91.02
75190;HTU21D;69198;44.694;37.790;2023-12-04T03:40:43;14.09;91.06
75190;HTU21D;69198;44.694;37.790;2023-12-04T03:41:44;14.06;91.13
75190;HTU21D;69198;44.694;37.790;2023-12-04T03:42:45;14.03;91.23
75190;HTU21D;69198;44.694;37.790;2023-12-04T03:43:46;14.00;91.28
75190;HTU21D;69198;44.694;37.790;2023-12-04T03:44:47;13.98;91.33
75190;HTU21D;69198;44.694;37.790;2023-12-04T03:45:48;13.97;91.33
75190;HTU21D;69198;44.694;37.790;2023-12-04T03:46:49;13.97;91.35
75190;HTU21D;69198;44.694;37.790;2023-12-04T03:47:50;13.96;91.37
75190;HTU21D;69198;44.694;37.790;2023-12-04T03:48:51;13.94;91.36
75190;HTU21D;69198;44.694;37.790;2023-12-04T03:49:52;13.93;91.40
75190;HTU21D;69198;44.694;37.790;2023-12-04T03:50:53;13.90;91.40
75190;HTU21D;69198;44.694;37.790;2023-12-04T03:51:54;13.90;91.40
75190;HTU21D;69198;44.694;37.790;2023-12-04T03:52:55;13.88;91.45
75190;HTU21D;69198;44.694;37.790;2023-12-04T03:53:56;13.84;91.50
75190;HTU21D;69198;44.694;37.790;2023-12-04T03:54:57;13.85;91.55
75190;HTU21D;69198;44.694;37.790;2023-12-04T03:55:58;13.86;91.58
75190;HTU21D;69198;44.694;37.790;2023-12-04T03:56:59;13.88;91.58
75190;HTU21D;69198;44.694;37.790;2023-12-04T03:58:01;13.86;91.62
75190;HTU21D;69198;44.694;37.790;2023-12-04T03:59:02;13.83;91.66
75190;HTU21D;69198;44.694;37.790;2023-12-04T04:00:05;13.84;91.66
75190;HTU21D;69198;44.694;37.790;2023-12-04T04:01:12;13.84;91.68
75190;HTU21D;69198;44.694;37.790;2023-12-04T04:02:13;13.83;91.66
75190;HTU21D;69198;44.694;37.790;2023-12-04T04:03:14;13.82;91.69
75190;HTU21D;69198;44.694;37.790;2023-12-04T04:04:15;13.81;91.75
75190;HTU21D;69198;44.694;37.790;2023-12-04T04:05:16;13.83;91.77
75190;HTU21D;69198;44.694;37.790;2023-12-04T04:06:17;13.83;91.81
75190;HTU21D;69198;44.694;37.790;2023-12-04T04:07:19;13.83;91.83
75190;HTU21D;69198;44.694;37.790;2023-12-04T04:08:20;13.85;91.84
75190;HTU21D;69198;44.694;37.790;2023-12-04T04:09:21;13.84;91.81
75190;HTU21D;69198;44.694;37.790;2023-12-04T04:10:22;13.84;91.81
75190;HTU21D;69198;44.694;37.790;2023-12-04T04:11:23;13.82;91.79
75190;HTU21D;69198;44.694;37.790;2023-12-04T04:12:24;13.82;91.78
75190;HTU21D;69198;44.694;37.790;2023-12-04T04:13:25;13.81;91.78
75190;HTU21D;69198;44.694;37.790;2023-12-04T04:14:26;13.80;91.79
75190;HTU21D;69198;44.694;37.790;2023-12-04T04:15:27;13.77;91.76
75190;HTU21D;69198;44.694;37.790;2023-12-04T04:16:28;13.76;91.79
75190;HTU21D;69198;44.694;37.790;2023-12-04T04:17:29;13.73;91.80
75190;HTU21D;69198;44.694;37.790;2023-12-04T04:18:31;13.71;91.83
75190;HTU21D;69198;44.694;37.790;2023-12-04T04:19:32;13.71;91.88
75190;HTU21D;69198;44.694;37.790;2023-12-04T04:20:33;13.69;91.89
75190;HTU21D;69198;44.694;37.790;2023-12-04T04:21:34;13.67;91.90
75190;HTU21D;69198;44.694;37.790;2023-12-04T04:22:35;13.66;91.97
75190;HTU21D;69198;44.694;37.790;2023-12-04T04:23:38;13.64;92.00
75190;HTU21D;69198;44.694;37.790;2023-12-04T04:24:39;13.64;92.02
75190;HTU21D;69198;44.694;37.790;2023-12-04T04:25:40;13.63;92.08
75190;HTU21D;69198;44.694;37.790;2023-12-04T04:26:41;13.62;92.08
75190;HTU21D;69198;44.694;37.790;2023-12-04T04:27:42;13.62;92.11
75190;HTU21D;69198;44.694;37.790;2023-12-04T04:28:43;13.62;92.11
75190;HTU21D;69198;44.694;37.790;2023-12-04T04:29:44;13.62;92.11
75190;HTU21D;69198;44.694;37.790;2023-12-04T04:30:45;13.62;92.11
75190;HTU21D;69198;44.694;37.790;2023-12-04T04:31:46;13.63;92.11
75190;HTU21D;69198;44.694;37.790;2023-12-04T04:32:48;13.65;92.09
75190;HTU21D;69198;44.694;37.790;2023-12-04T04:33:52;13.64;92.08
75190;HTU21D;69198;44.694;37.790;2023-12-04T04:34:53;13.65;92.10
75190;HTU21D;69198;44.694;37.790;2023-12-04T04:35:54;13.66;92.05
75190;HTU21D;69198;44.694;37.790;2023-12-04T04:36:55;13.68;92.04
75190;HTU21D;69198;44.694;37.790;2023-12-04T04:37:57;13.68;92.01
75190;HTU21D;69198;44.694;37.790;2023-12-04T04:38:58;13.70;92.03
75190;HTU21D;69198;44.694;37.790;2023-12-04T04:39:59;13.71;92.02
75190;HTU21D;69198;44.694;37.790;2023-12-04T04:40:59;13.73;92.01
75190;HTU21D;69198;44.694;37.790;2023-12-04T04:42:05;13.75;92.00
75190;HTU21D;69198;44.694;37.790;2023-12-04T04:43:06;13.76;92.00
75190;HTU21D;69198;44.694;37.790;2023-12-04T04:44:07;13.78;91.95
75190;HTU21D;69198;44.694;37.790;2023-12-04T04:45:09;13.79;91.93
75190;HTU21D;69198;44.694;37.790;2023-12-04T04:46:10;13.81;91.90
75190;HTU21D;69198;44.694;37.790;2023-12-04T04:47:11;13.82;91.89
75190;HTU21D;69198;44.694;37.790;2023-12-04T04:48:12;13.83;91.84
75190;HTU21D;69198;44.694;37.790;2023-12-04T04:49:13;13.86;91.82
75190;HTU21D;69198;44.694;37.790;2023-12-04T04:50:14;13.84;91.80
75190;HTU21D;69198;44.694;37.790;2023-12-04T04:51:15;13.85;91.80
75190;HTU21D;69198;44.694;37.790;2023-12-04T04:52:17;13.86;91.79
75190;HTU21D;69198;44.694;37.790;2023-12-04T04:53:17;13.88;91.79
75190;HTU21D;69198;44.694;37.790;2023-12-04T04:54:19;13.89;91.78
75190;HTU21D;69198;44.694;37.790;2023-12-04T04:55:20;13.90;91.79
75190;HTU21D;69198;44.694;37.790;2023-12-04T04:56:21;13.91;91.76
75190;HTU21D;69198;44.694;37.790;2023-12-04T04:57:22;13.93;91.72
75190;HTU21D;69198;44.694;37.790;2023-12-04T04:58:23;13.95;91.71
75190;HTU21D;69198;44.694;37.790;2023-12-04T04:59:27;13.96;91.68
75190;HTU21D;69198;44.694;37.790;2023-12-04T05:00:30;13.95;91.72
75190;HTU21D;69198;44.694;37.790;2023-12-04T05:01:31;13.96;91.69
75190;HTU21D;69198;44.694;37.790;2023-12-04T05:02:32;13.97;91.72
75190;HTU21D;69198;44.694;37.790;2023-12-04T05:03:35;13.97;91.72
75190;HTU21D;69198;44.694;37.790;2023-12-04T05:04:36;13.98;91.70
75190;HTU21D;69198;44.694;37.790;2023-12-04T05:05:37;13.99;91.71
75190;HTU21D;69198;44.694;37.790;2023-12-04T05:06:38;14.01;91.66
75190;HTU21D;69198;44.694;37.790;2023-12-04T05:07:39;14.00;91.68
75190;HTU21D;69198;44.694;37.790;2023-12-04T05:08:40;14.04;91.63
75190;HTU21D;69198;44.694;37.790;2023-12-04T05:09:41;14.04;91.65
75190;HTU21D;69198;44.694;37.790;2023-12-04T05:10:42;14.05;91.59
75190;HTU21D;69198;44.694;37.790;2023-12-04T05:11:43;14.06;91.57
75190;HTU21D;69198;44.694;37.790;2023-12-04T05:12:44;14.06;91.56
75190;HTU21D;69198;44.694;37.790;2023-12-04T05:13:45;14.07;91.59
75190;HTU21D;69198;44.694;37.790;2023-12-04T05:14:46;14.08;91.54
75190;HTU21D;69198;44.694;37.790;2023-12-04T05:15:47;14.09;91.50
75190;HTU21D;69198;44.694;37.790;2023-12-04T05:16:48;14.10;91.45
75190;HTU21D;69198;44.694;37.790;2023-12-04T05:17:49;14.11;91.43
75190;HTU21D;69198;44.694;37.790;2023-12-04T05:18:51;14.12;91.40
75190;HTU21D;69198;44.694;37.790;2023-12-04T05:19:52;14.12;91.37
75190;HTU21D;69198;44.694;37.790;2023-12-04T05:20:53;14.13;91.36
75190;HTU21D;69198;44.694;37.790;2023-12-04T05:21:54;14.15;91.31
75190;HTU21D;69198;44.694;37.790;2023-12-04T05:22:56;14.17;91.27
75190;HTU21D;69198;44.694;37.790;2023-12-04T05:23:57;14.15;91.25
75190;HTU21D;69198;44.694;37.790;2023-12-04T05:24:59;14.15;91.24
75190;HTU21D;69198;44.694;37.790;2023-12-04T05:26:00;14.18;91.24
75190;HTU21D;69198;44.694;37.790;2023-12-04T05:27:01;14.19;91.21
75190;HTU21D;69198;44.694;37.790;2023-12-04T05:28:03;14.20;91.17
75190;HTU21D;69198;44.694;37.790;2023-12-04T05:29:05;14.21;91.15
75190;HTU21D;69198;44.694;37.790;2023-12-04T05:30:06;14.22;91.09
75190;HTU21D;69198;44.694;37.790;2023-12-04T05:31:07;14.22;91.05
75190;HTU21D;69198;44.694;37.790;2023-12-04T05:32:08;14.23;91.02
75190;HTU21D;69198;44.694;37.790;2023-12-04T05:33:09;14.24;90.97
75190;HTU21D;69198;44.694;37.790;2023-12-04T05:34:10;14.25;90.94
75190;HTU21D;69198;44.694;37.790;2023-12-04T05:35:11;14.24;90.91
75190;HTU21D;69198;44.694;37.790;2023-12-04T05:36:13;14.23;90.79
75190;HTU21D;69198;44.694;37.790;2023-12-04T05:37:14;14.20;90.55
75190;HTU21D;69198;44.694;37.790;2023-12-04T05:38:15;14.17;90.39
75190;HTU21D;69198;44.694;37.790;2023-12-04T05:39:16;14.09;90.31
75190;HTU21D;69198;44.694;37.790;2023-12-04T05:40:17;14.05;90.23
75190;HTU21D;69198;44.694;37.790;2023-12-04T05:41:18;14.01;90.12
75190;HTU21D;69198;44.694;37.790;2023-12-04T05:42:19;13.98;90.05
75190;HTU21D;69198;44.694;37.790;2023-12-04T05:43:20;13.96;90.01
75190;HTU21D;69198;44.694;37.790;2023-12-04T05:44:21;13.94;89.94
75190;HTU21D;69198;44.694;37.790;2023-12-04T05:45:22;13.93;89.85
75190;HTU21D;69198;44.694;37.790;2023-12-04T05:46:23;13.90;89.77
75190;HTU21D;69198;44.694;37.790;2023-12-04T05:47:24;13.90;89.68
75190;HTU21D;69198;44.694;37.790;2023-12-04T05:48:25;13.89;89.57
75190;HTU21D;69198;44.694;37.790;2023-12-04T05:49:26;13.84;89.38
75190;HTU21D;69198;44.694;37.790;2023-12-04T05:50:29;13.79;89.16
75190;HTU21D;69198;44.694;37.790;2023-12-04T05:51:31;13.74;88.96
75190;HTU21D;69198;44.694;37.790;2023-12-04T05:52:32;13.67;88.76
75190;HTU21D;69198;44.694;37.790;2023-12-04T05:53:33;13.62;88.55
75190;HTU21D;69198;44.694;37.790;2023-12-04T05:54:34;13.53;88.57
75190;HTU21D;69198;44.694;37.790;2023-12-04T05:55:35;13.48;88.61
75190;HTU21D;69198;44.694;37.790;2023-12-04T05:56:36;13.46;88.60
75190;HTU21D;69198;44.694;37.790;2023-12-04T05:57:39;13.40;88.66
75190;HTU21D;69198;44.694;37.790;2023-12-04T05:58:40;13.39;88.67
75190;HTU21D;69198;44.694;37.790;2023-12-04T05:59:41;13.36;88.70
75190;HTU21D;69198;44.694;37.790;2023-12-04T06:00:42;13.35;88.68
75190;HTU21D;69198;44.694;37.790;2023-12-04T06:01:43;13.34;88.62
75190;HTU21D;69198;44.694;37.790;2023-12-04T06:02:44;13.30;88.60
75190;HTU21D;69198;44.694;37.790;2023-12-04T06:03:46;13.27;88.57
75190;HTU21D;69198;44.694;37.790;2023-12-04T06:04:47;13.25;88.54
75190;HTU21D;69198;44.694;37.790;2023-12-04T06:05:48;13.22;88.41
75190;HTU21D;69198;44.694;37.790;2023-12-04T06:06:49;13.18;88.25
75190;HTU21D;69198;44.694;37.790;2023-12-04T06:07:50;13.15;88.23
75190;HTU21D;69198;44.694;37.790;2023-12-04T06:08:51;13.09;88.22
75190;HTU21D;69198;44.694;37.790;2023-12-04T06:09:52;13.06;88.01
75190;HTU21D;69198;44.694;37.790;2023-12-04T06:10:53;12.99;87.82
75190;HTU21D;69198;44.694;37.790;2023-12-04T06:11:54;12.93;87.77
75190;HTU21D;69198;44.694;37.790;2023-12-04T06:12:55;12.86;87.58
75190;HTU21D;69198;44.694;37.790;2023-12-04T06:13:56;12.79;87.50
75190;HTU21D;69198;44.694;37.790;2023-12-04T06:14:57;12.73;87.51
75190;HTU21D;69198;44.694;37.790;2023-12-04T06:16:01;12.66;87.50